Lake Buena Vista, Florida
Current Conditions -  °F | °C
As of 2:48 PM on Friday 21 Nov 2014 (Local Time) from KISM Reporting Station
Scattered Clouds Scattered Clouds  
Wind Chill: 23°   Ceiling: Unl
Heat Index: 23°   Visibility: 10mi
Dew Point: 12°   Wind: 14mph
Humidity: 50%   Direction: 60°ENE
Pressure: 30.24"   Gusts: 21mph
Location:  28.37°N, 81.52°W
Report Text: KISM 211848Z 06012G18KT 10SM SCT100 23/12 A3024
Loading
Personal Weather Stations






























Interactive Weather Map New forecast layout! Learn more

10-Day Weather Forecast

Advertisements
Track Severe Weather on mobile